Time;durP1;ratioP1;P1;durP2;ratioP2;P2;SDS_P1;SDS_P2;PMS_P1;PMS_P2;Temp;Humidity;BMP_temperature;BMP_pressure;BME280_temperature;BME280_humidity;BME280_pressure;Samples;Min_cycle;Max_cycle;Signal;HPM_P1;HPM_P2
2023/10/17 00:00:52;;;;;;;6.00;3.83;;;6.90;99.90;;;;;;5050894;28;20076;-82
2023/10/17 00:03:17;;;;;;;8.40;4.07;;;6.90;99.90;;;;;;5034506;28;20055;-82
2023/10/17 00:05:43;;;;;;;9.55;4.20;;;6.90;99.90;;;;;;5051036;28;20051;-82
2023/10/17 00:08:09;;;;;;;6.50;3.17;;;6.80;99.90;;;;;;5034106;28;20055;-82
2023/10/17 00:10:44;;;;;;;3.38;2.65;;;6.80;99.90;;;;;;5050436;28;20037;-82
2023/10/17 00:15:54;;;;;;;3.95;2.92;;;6.70;99.90;;;;;;5050736;28;20045;-82
2023/10/17 00:18:24;;;;;;;6.30;3.38;;;6.60;99.90;;;;;;5049992;28;20037;-82
2023/10/17 00:20:51;;;;;;;4.28;3.40;;;6.60;99.90;;;;;;5049124;28;20040;-82
2023/10/17 00:23:20;;;;;;;6.15;3.28;;;6.50;99.90;;;;;;5049551;28;20045;-82
2023/10/17 00:25:49;;;;;;;5.75;3.00;;;6.50;99.90;;;;;;5050271;28;20045;-82
2023/10/17 00:28:15;;;;;;;5.53;2.70;;;6.60;99.90;;;;;;5050312;28;20048;-81
2023/10/17 00:30:41;;;;;;;5.55;2.90;;;6.50;99.90;;;;;;5050638;28;20411;-82
2023/10/17 00:33:11;;;;;;;3.30;2.25;;;6.50;99.90;;;;;;5050268;28;20064;-82
2023/10/17 00:35:40;;;;;;;4.18;2.45;;;6.50;99.90;;;;;;5050369;28;20047;-82
2023/10/17 00:38:07;;;;;;;5.43;2.42;;;6.50;99.90;;;;;;5033589;28;20389;-82
2023/10/17 00:40:51;;;;;;;4.32;2.63;;;6.50;99.90;;;;;;5032976;28;20048;-82
2023/10/17 00:43:17;;;;;;;3.92;2.75;;;6.50;99.90;;;;;;5050288;28;20077;-80
2023/10/17 00:45:47;;;;;;;5.85;3.17;;;6.50;99.90;;;;;;5050510;28;20059;-81
2023/10/17 00:48:18;;;;;;;6.80;3.25;;;6.50;99.90;;;;;;5050175;28;20393;-81
2023/10/17 00:50:49;;;;;;;8.00;4.15;;;6.50;99.90;;;;;;5050151;28;20033;-81
2023/10/17 00:53:16;;;;;;;5.53;3.22;;;6.60;99.90;;;;;;5051500;28;20108;-82
2023/10/17 00:55:56;;;;;;;7.22;3.75;;;6.60;99.90;;;;;;5054154;28;20040;-82
2023/10/17 00:58:23;;;;;;;6.00;3.60;;;6.60;99.90;;;;;;5053876;28;20047;-82
2023/10/17 01:00:53;;;;;;;5.47;3.20;;;6.60;99.90;;;;;;5053740;28;20069;-81
2023/10/17 01:03:19;;;;;;;5.88;3.10;;;6.60;99.90;;;;;;5053944;28;20041;-82
2023/10/17 01:05:57;;;;;;;7.95;3.50;;;6.60;99.90;;;;;;5053867;28;20059;-81
2023/10/17 01:08:36;;;;;;;4.43;3.38;;;6.60;99.90;;;;;;5053819;28;20041;-82
2023/10/17 01:11:08;;;;;;;4.35;2.88;;;6.60;99.90;;;;;;5036984;28;20041;-82
2023/10/17 01:13:37;;;;;;;4.50;2.80;;;6.60;99.90;;;;;;5053755;28;20084;-82
2023/10/17 01:16:07;;;;;;;6.15;3.50;;;6.60;99.90;;;;;;5053637;28;20044;-82
2023/10/17 01:18:34;;;;;;;5.10;3.00;;;6.50;99.90;;;;;;5053874;28;20483;-81
2023/10/17 01:21:00;;;;;;;5.03;2.83;;;6.50;99.90;;;;;;5053355;28;20048;-82
2023/10/17 01:23:29;;;;;;;4.60;3.03;;;6.50;99.90;;;;;;5053618;28;20048;-82
2023/10/17 01:25:56;;;;;;;4.63;3.00;;;6.60;99.90;;;;;;5036803;28;20423;-82
2023/10/17 01:28:22;;;;;;;4.20;3.15;;;6.60;99.90;;;;;;5052969;28;20045;-82
2023/10/17 01:30:48;;;;;;;5.10;3.03;;;6.70;99.90;;;;;;5034926;28;20183;-82
2023/10/17 01:33:14;;;;;;;4.05;3.20;;;6.70;99.90;;;;;;5052286;28;20116;-82
2023/10/17 01:35:44;;;;;;;6.32;3.13;;;6.70;99.90;;;;;;5053547;28;20039;-82
2023/10/17 01:38:10;;;;;;;4.20;2.50;;;6.70;99.90;;;;;;5053104;28;20048;-82
2023/10/17 01:40:35;;;;;;;4.72;3.10;;;6.70;99.90;;;;;;5034311;28;20041;-81
2023/10/17 01:43:02;;;;;;;6.35;3.05;;;6.70;99.90;;;;;;5052536;28;20052;-83
2023/10/17 01:45:29;;;;;;;3.22;2.63;;;6.70;99.90;;;;;;5053067;28;20049;-82
2023/10/17 01:47:55;;;;;;;5.38;3.05;;;6.70;99.90;;;;;;5052650;28;20102;-82
2023/10/17 01:50:25;;;;;;;4.25;3.03;;;6.70;99.90;;;;;;5052702;28;20496;-82
2023/10/17 01:52:54;;;;;;;4.63;3.15;;;6.60;99.90;;;;;;5053203;28;20095;-82
2023/10/17 01:55:25;;;;;;;4.95;3.00;;;6.70;99.90;;;;;;5052847;28;20043;-82
2023/10/17 01:57:54;;;;;;;7.40;3.22;;;6.60;99.90;;;;;;5036151;28;20040;-83
2023/10/17 02:02:58;;;;;;;5.30;3.00;;;6.50;99.90;;;;;;5052990;28;20385;-82
2023/10/17 02:05:23;;;;;;;5.10;2.63;;;6.40;99.90;;;;;;5051975;28;20063;-82
2023/10/17 02:07:49;;;;;;;3.95;2.97;;;6.30;99.90;;;;;;5036035;28;20067;-82
2023/10/17 02:10:28;;;;;;;5.18;3.28;;;6.30;99.90;;;;;;5052391;28;20489;-82
2023/10/17 02:12:54;;;;;;;5.80;3.42;;;6.30;99.90;;;;;;5036313;28;20041;-82
2023/10/17 02:15:20;;;;;;;3.80;3.10;;;6.30;99.90;;;;;;5052593;28;20479;-82
2023/10/17 02:17:47;;;;;;;9.07;3.15;;;6.30;99.90;;;;;;5052410;28;20041;-82
2023/10/17 02:22:54;;;;;;;3.55;3.03;;;6.20;99.90;;;;;;5048202;28;20053;-82
2023/10/17 02:25:28;;;;;;;5.40;2.88;;;6.20;99.90;;;;;;5032529;28;20065;-82
2023/10/17 02:27:53;;;;;;;;;;;6.10;99.90;;;;;;5037908;28;20491;-82
2023/10/17 02:30:20;;;;;;;4.22;2.30;;;6.10;99.90;;;;;;5051941;28;19923;-82
2023/10/17 02:32:53;;;;;;;7.03;1.92;;;6.00;99.90;;;;;;5052029;28;20041;-83
2023/10/17 02:35:22;;;;;;;2.90;2.10;;;6.00;99.90;;;;;;5052216;28;20060;-82
2023/10/17 02:37:48;;;;;;;2.45;1.90;;;5.90;99.90;;;;;;5052027;28;20484;-83
2023/10/17 02:40:20;;;;;;;2.95;1.50;;;5.80;99.90;;;;;;5051676;28;20048;-83
2023/10/17 02:42:47;;;;;;;2.35;1.77;;;5.80;99.90;;;;;;5051628;28;20492;-83
2023/10/17 02:45:13;;;;;;;2.53;1.58;;;5.60;99.90;;;;;;5034778;28;20044;-83
2023/10/17 02:47:43;;;;;;;2.13;1.70;;;5.60;99.90;;;;;;5050703;28;20116;-83
2023/10/17 02:52:54;;;;;;;3.13;2.03;;;5.50;99.90;;;;;;5051717;28;20068;-83
2023/10/17 02:55:23;;;;;;;5.00;2.08;;;5.50;99.90;;;;;;5051847;28;20048;-83
2023/10/17 02:57:50;;;;;;;3.47;2.45;;;5.40;99.90;;;;;;5051539;28;20051;-83
2023/10/17 03:00:35;;;;;;;4.65;2.42;;;5.50;99.90;;;;;;5050199;28;20033;-83
2023/10/17 03:03:11;;;;;;;3.75;2.20;;;5.40;99.90;;;;;;5051081;28;20047;-83
2023/10/17 03:05:39;;;;;;;2.20;1.80;;;5.40;99.90;;;;;;5051685;28;20052;-83
2023/10/17 03:08:10;;;;;;;5.38;2.55;;;5.40;99.90;;;;;;5051716;28;20037;-83
2023/10/17 03:10:37;;;;;;;4.30;2.35;;;5.50;99.90;;;;;;5051159;28;20040;-83
2023/10/17 03:13:06;;;;;;;5.60;2.20;;;5.30;99.90;;;;;;5051681;28;20412;-82
2023/10/17 03:15:37;;;;;;;5.05;2.60;;;5.30;99.90;;;;;;5051619;28;20504;-82
2023/10/17 03:18:06;;;;;;;4.45;2.40;;;5.20;99.90;;;;;;5033913;28;20048;-83
2023/10/17 03:20:41;;;;;;;5.03;2.70;;;5.20;99.90;;;;;;5050953;28;20071;-83
2023/10/17 03:23:09;;;;;;;3.75;2.30;;;5.30;99.90;;;;;;5034851;28;20536;-82
2023/10/17 03:25:38;;;;;;;5.07;2.78;;;5.20;99.90;;;;;;5051095;28;20405;-83
2023/10/17 03:28:13;;;;;;;4.75;2.42;;;5.00;99.90;;;;;;5051051;28;20037;-82
2023/10/17 03:30:39;;;;;;;4.47;2.90;;;5.20;99.90;;;;;;5034360;28;20033;-82
2023/10/17 03:33:06;;;;;;;4.47;3.10;;;5.20;99.90;;;;;;5034695;28;20411;-82
2023/10/17 03:35:35;;;;;;;4.15;2.92;;;5.10;99.90;;;;;;5050876;28;20036;-82
2023/10/17 03:38:02;;;;;;;3.30;2.40;;;5.10;99.90;;;;;;5051013;28;20075;-83
2023/10/17 03:40:40;;;;;;;4.25;2.45;;;5.10;99.90;;;;;;5050948;28;20463;-82
2023/10/17 03:43:12;;;;;;;4.05;2.90;;;5.00;99.90;;;;;;5050953;28;20052;-82
2023/10/17 03:45:51;;;;;;;3.25;2.78;;;5.00;99.90;;;;;;5050938;28;20381;-82
2023/10/17 03:48:20;;;;;;;4.05;2.63;;;5.00;99.90;;;;;;5034029;28;20041;-82
2023/10/17 03:53:15;;;;;;;3.63;2.70;;;5.00;99.90;;;;;;5050771;28;20573;-83
2023/10/17 03:55:43;;;;;;;6.10;2.70;;;5.00;99.90;;;;;;5050742;28;20378;-83
2023/10/17 03:59:16;;;;;;;3.90;2.50;;;5.00;99.90;;;;;;5050467;28;20051;-83
2023/10/17 04:01:00;;;;;;;4.20;2.40;;;4.90;99.90;;;;;;5042890;28;20080;-82
2023/10/17 04:03:30;;;;;;;3.17;2.22;;;4.90;99.90;;;;;;5050266;28;20086;-82
2023/10/17 04:08:48;;;;;;;4.18;2.15;;;4.80;99.90;;;;;;5050334;28;20045;-83
2023/10/17 04:11:17;;;;;;;2.47;2.00;;;4.80;99.90;;;;;;5050212;28;20132;-83
2023/10/17 04:13:49;;;;;;;4.22;2.25;;;4.70;99.90;;;;;;5033510;28;20037;-83
2023/10/17 04:16:22;;;;;;;4.53;2.80;;;4.80;99.90;;;;;;5050398;28;20154;-83
2023/10/17 04:18:55;;;;;;;5.20;2.90;;;4.80;99.90;;;;;;5033383;28;20041;-83
2023/10/17 04:23:53;;;;;;;5.15;2.95;;;5.00;99.90;;;;;;5050091;28;20080;-83
2023/10/17 04:26:19;;;;;;;3.58;2.45;;;5.00;99.90;;;;;;5050307;28;20037;-83
2023/10/17 04:28:50;;;;;;;4.22;2.53;;;5.10;99.90;;;;;;5049579;28;20045;-83
2023/10/17 04:31:25;;;;;;;5.72;2.70;;;5.10;99.90;;;;;;5049893;28;20040;-83
2023/10/17 04:34:06;;;;;;;6.28;2.90;;;5.10;99.90;;;;;;5050178;28;20439;-83
2023/10/17 04:36:39;;;;;;;3.13;2.42;;;5.10;99.90;;;;;;5050188;28;20150;-84
2023/10/17 04:39:18;;;;;;;3.88;2.65;;;5.10;99.90;;;;;;5049601;28;20041;-83
2023/10/17 04:44:18;;;;;;;3.58;2.72;;;5.00;99.90;;;;;;5049894;28;20414;-83
2023/10/17 04:46:50;;;;;;;4.35;2.70;;;5.00;99.90;;;;;;5049743;28;20033;-84
2023/10/17 04:49:19;;;;;;;4.35;2.50;;;5.00;99.90;;;;;;5049753;28;20044;-84
2023/10/17 04:51:45;;;;;;;5.50;2.92;;;4.90;99.90;;;;;;5049773;28;20041;-83
2023/10/17 04:57:00;;;;;;;5.47;2.90;;;5.00;99.90;;;;;;5049878;28;20386;-84
2023/10/17 04:59:41;;;;;;;4.07;3.20;;;5.00;99.90;;;;;;5049400;28;20524;-84
2023/10/17 06:18:38;;;;;;;6.75;3.75;;;5.80;99.90;;;;;;5052245;28;19936;-83
2023/10/17 06:34:16;;;;;;;6.85;4.13;;;6.00;99.90;;;;;;5052064;28;20132;-83
2023/10/17 06:36:43;;;;;;;5.32;4.07;;;6.00;99.90;;;;;;5052280;28;20049;-83
2023/10/17 06:39:19;;;;;;;7.20;4.60;;;6.10;99.90;;;;;;5035330;28;20055;-83
2023/10/17 06:41:46;;;;;;;10.70;4.70;;;6.10;99.90;;;;;;5051855;28;20072;-83
2023/10/17 06:44:21;;;;;;;7.50;4.38;;;6.10;99.90;;;;;;5052255;28;20447;-83
2023/10/17 06:46:56;;;;;;;8.27;4.50;;;6.20;99.90;;;;;;5051636;28;20044;-83
2023/10/17 06:52:18;;;;;;;5.65;4.45;;;6.30;99.90;;;;;;5051725;28;20072;-83
2023/10/17 06:54:50;;;;;;;6.80;4.35;;;6.30;99.90;;;;;;5051584;28;20508;-83
2023/10/17 06:57:24;;;;;;;5.70;4.28;;;6.40;99.90;;;;;;5052195;28;20072;-82
2023/10/17 06:59:51;;;;;;;5.68;4.50;;;6.40;99.90;;;;;;5051317;28;20040;-83
2023/10/17 07:02:31;;;;;;;7.68;4.60;;;6.50;99.90;;;;;;5035037;28;20033;-83
2023/10/17 07:05:00;;;;;;;7.40;4.70;;;6.50;99.90;;;;;;5052029;28;20504;-83
2023/10/17 07:07:39;;;;;;;6.93;3.95;;;6.60;99.90;;;;;;5034958;28;20043;-83
2023/10/17 07:13:27;;;;;;;6.22;4.20;;;6.70;99.90;;;;;;5051594;28;20049;-82
2023/10/17 07:15:53;;;;;;;5.28;3.40;;;6.80;99.90;;;;;;5034717;28;20483;-82
2023/10/17 07:23:40;;;;;;;8.40;3.78;;;7.00;99.90;;;;;;5051116;28;20049;-83
2023/10/17 07:26:17;;;;;;;5.40;3.60;;;7.00;99.90;;;;;;5034910;28;20044;-83
2023/10/17 07:28:49;;;;;;;4.85;3.38;;;7.00;99.90;;;;;;5034261;28;20037;-83
2023/10/17 07:31:16;;;;;;;5.43;3.47;;;7.10;99.90;;;;;;5051817;28;20045;-82
2023/10/17 07:33:43;;;;;;;9.10;3.80;;;7.10;99.90;;;;;;5052064;28;20068;-83
2023/10/17 07:36:15;;;;;;;7.28;3.58;;;7.20;99.90;;;;;;5034643;28;20041;-82
2023/10/17 07:38:43;;;;;;;5.55;3.58;;;7.30;99.90;;;;;;5051210;28;20394;-83
2023/10/17 07:41:32;;;;;;;6.82;3.80;;;7.30;99.90;;;;;;5051057;28;20451;-82
2023/10/17 07:44:05;;;;;;;7.03;3.80;;;7.30;99.90;;;;;;5053646;28;20462;-82
2023/10/17 07:46:34;;;;;;;9.27;4.00;;;7.40;99.90;;;;;;5052061;28;20049;-82
2023/10/17 07:49:05;;;;;;;6.63;3.97;;;7.50;99.90;;;;;;5050957;28;20565;-82
2023/10/17 07:51:32;;;;;;;6.60;3.80;;;7.50;99.90;;;;;;5034871;28;20045;-82
2023/10/17 07:53:58;;;;;;;7.57;4.30;;;7.60;99.90;;;;;;5051201;28;20496;-82
2023/10/17 07:56:25;;;;;;;6.93;3.97;;;7.60;99.90;;;;;;5050823;28;20044;-82
2023/10/17 07:59:08;;;;;;;5.97;3.85;;;7.60;99.90;;;;;;5050962;28;20049;-83
2023/10/17 08:01:43;;;;;;;5.78;4.22;;;7.60;99.90;;;;;;5051730;28;20520;-83
2023/10/17 08:04:18;;;;;;;6.90;4.22;;;7.60;99.90;;;;;;5049838;28;20044;-83
2023/10/17 08:06:44;;;;;;;6.28;4.38;;;7.60;99.90;;;;;;5050846;28;20408;-83
2023/10/17 08:11:52;;;;;;;9.90;4.50;;;7.70;99.90;;;;;;5050456;28;20052;-83
2023/10/17 08:14:31;;;;;;;8.10;4.70;;;7.70;99.90;;;;;;5050598;28;20037;-82
2023/10/17 08:16:58;;;;;;;17.75;5.00;;;7.80;99.90;;;;;;5050233;28;20048;-82
2023/10/17 08:19:29;;;;;;;11.02;4.35;;;7.80;99.90;;;;;;5050377;28;20071;-83
2023/10/17 08:24:40;;;;;;;7.68;4.45;;;8.00;99.90;;;;;;5051071;28;20052;-83
2023/10/17 08:27:17;;;;;;;7.47;4.07;;;8.10;99.90;;;;;;5050554;28;20053;-82
2023/10/17 08:29:45;;;;;;;7.43;4.38;;;8.20;99.90;;;;;;5051407;28;20186;-82
2023/10/17 08:34:47;;;;;;;7.15;3.45;;;8.50;99.90;;;;;;5051911;28;20041;-82
2023/10/17 08:37:26;;;;;;;6.95;3.78;;;8.60;99.90;;;;;;5051347;28;20194;-82
2023/10/17 08:39:51;;;;;;;7.13;3.72;;;8.70;99.90;;;;;;5052740;28;20044;-82
2023/10/17 08:44:56;;;;;;;6.45;3.15;;;9.00;99.90;;;;;;5051463;28;20053;-81
2023/10/17 08:47:25;;;;;;;6.30;3.10;;;9.10;99.90;;;;;;5051387;28;20057;-80
2023/10/17 08:49:54;;;;;;;5.97;3.05;;;9.10;99.90;;;;;;5052210;28;20304;-82
2023/10/17 08:52:26;;;;;;;8.23;3.22;;;9.20;99.90;;;;;;5052128;28;20408;-81
2023/10/17 08:54:52;;;;;;;9.43;3.20;;;9.30;99.90;;;;;;5034590;28;20045;-81
2023/10/17 08:57:18;;;;;;;5.68;3.03;;;9.40;99.90;;;;;;5051027;28;20110;-80
2023/10/17 09:05:18;;;;;;;6.25;2.95;;;9.60;99.90;;;;;;5051938;28;20048;-80
2023/10/17 09:07:48;;;;;;;8.23;3.30;;;9.70;99.90;;;;;;5054213;28;20041;-79
2023/10/17 09:10:38;;;;;;;6.28;2.90;;;9.70;99.90;;;;;;5052517;28;20025;-81
2023/10/17 09:14:10;;;;;;;8.48;2.85;;;9.80;99.90;;;;;;5053105;28;20123;-80
2023/10/17 09:16:13;;;;;;;7.18;2.92;;;9.80;99.90;;;;;;5054830;28;20123;-80
2023/10/17 09:18:48;;;;;;;7.10;3.25;;;9.90;99.90;;;;;;5038778;28;20064;-81
2023/10/17 09:21:15;;;;;;;7.72;3.13;;;9.90;99.90;;;;;;5056538;28;20048;-79
2023/10/17 09:23:41;;;;;;;5.70;2.55;;;9.90;99.90;;;;;;5057103;28;20053;-81
2023/10/17 09:26:09;;;;;;;5.13;2.70;;;10.00;99.90;;;;;;5056887;28;20041;-80
2023/10/17 09:28:36;;;;;;;5.38;2.10;;;10.00;99.90;;;;;;5056142;28;20156;-80
2023/10/17 09:31:06;;;;;;;5.97;2.00;;;10.10;99.90;;;;;;5056311;28;20048;-81
2023/10/17 09:33:34;;;;;;;3.63;1.90;;;10.20;99.90;;;;;;5056571;28;20638;-80
2023/10/17 09:36:09;;;;;;;3.63;1.95;;;10.20;99.90;;;;;;5055965;28;20033;-79
2023/10/17 09:38:41;;;;;;;3.80;1.98;;;10.20;99.90;;;;;;5039587;28;20115;-80
2023/10/17 09:41:08;;;;;;;3.60;1.90;;;10.30;99.90;;;;;;5057327;28;20097;-79
2023/10/17 09:43:36;;;;;;;8.00;2.35;;;10.40;99.90;;;;;;5040921;28;20037;-78
2023/10/17 09:46:03;;;;;;;3.92;1.80;;;10.40;99.90;;;;;;5056035;28;20458;-81
2023/10/17 09:48:35;;;;;;;3.47;1.55;;;10.50;99.90;;;;;;5054176;28;20072;-80
2023/10/17 09:51:05;;;;;;;5.47;2.08;;;10.50;99.90;;;;;;5039542;28;20029;-78
2023/10/17 09:53:35;;;;;;;3.63;1.40;;;10.60;99.90;;;;;;5056385;28;20037;-79
2023/10/17 09:56:42;;;;;;;5.68;1.65;;;10.60;99.90;;;;;;5039730;28;20040;-79
2023/10/17 09:59:11;;;;;;;5.90;1.70;;;10.70;99.90;;;;;;5055744;28;20052;-79
2023/10/17 10:01:39;;;;;;;4.22;1.60;;;10.70;99.90;;;;;;5056300;28;20530;-78
2023/10/17 10:04:07;;;;;;;3.55;1.50;;;10.80;99.90;;;;;;5056274;28;20041;-78
2023/10/17 10:06:34;;;;;;;3.95;1.70;;;10.80;99.90;;;;;;5056129;28;20102;-78
2023/10/17 10:09:13;;;;;;;3.90;1.70;;;10.90;99.90;;;;;;5056011;28;20037;-78
2023/10/17 10:11:48;;;;;;;4.22;1.60;;;10.90;99.90;;;;;;5056216;28;20045;-79
2023/10/17 10:14:15;;;;;;;3.28;1.50;;;11.00;99.90;;;;;;5038601;28;20033;-79
2023/10/17 10:16:53;;;;;;;3.22;1.55;;;11.00;99.90;;;;;;5055300;28;20052;-79
2023/10/17 10:19:19;;;;;;;3.40;1.27;;;11.00;99.90;;;;;;5055452;28;20040;-80
2023/10/17 10:21:55;;;;;;;4.43;1.77;;;11.10;99.90;;;;;;5055136;28;20041;-78
2023/10/17 10:24:29;;;;;;;4.10;1.63;;;11.10;99.90;;;;;;5056901;28;20041;-78
2023/10/17 10:27:09;;;;;;;;;;;11.20;99.90;;;;;;5039565;28;20052;-79
2023/10/17 10:29:35;;;;;;;2.78;1.48;;;11.20;99.90;;;;;;5055356;28;19921;-79
2023/10/17 10:32:07;;;;;;;3.50;1.60;;;11.30;99.90;;;;;;5056950;28;20492;-79
2023/10/17 10:34:37;;;;;;;4.32;1.70;;;11.40;99.90;;;;;;5055214;28;20045;-79
2023/10/17 10:37:03;;;;;;;4.60;1.33;;;11.40;99.90;;;;;;5055336;28;20032;-79
2023/10/17 10:39:30;;;;;;;3.42;1.45;;;11.40;99.90;;;;;;5055640;28;20158;-77
2023/10/17 10:42:05;;;;;;;3.88;1.45;;;11.40;99.90;;;;;;5055100;28;20090;-78
2023/10/17 10:44:39;;;;;;;3.33;1.50;;;11.50;99.90;;;;;;5055027;28;20067;-78
2023/10/17 10:47:06;;;;;;;2.90;1.20;;;11.50;99.90;;;;;;5054177;28;20040;-79
2023/10/17 10:49:31;;;;;;;2.15;1.10;;;11.60;99.90;;;;;;5054786;28;20056;-78
2023/10/17 10:51:58;;;;;;;3.67;1.23;;;11.50;99.90;;;;;;5054764;28;20409;-78
2023/10/17 10:54:50;;;;;;;5.28;1.40;;;11.50;99.90;;;;;;5054897;28;20116;-78
2023/10/17 10:57:29;;;;;;;4.35;1.20;;;11.50;99.90;;;;;;5049847;28;20501;-79
2023/10/17 10:59:55;;;;;;;6.05;1.20;;;11.60;99.90;;;;;;5054604;28;20036;-79
2023/10/17 11:02:20;;;;;;;3.92;1.23;;;11.70;99.90;;;;;;5054794;28;20033;-78
2023/10/17 11:04:49;;;;;;;5.53;1.50;;;11.70;99.90;;;;;;5038177;28;20037;-79
2023/10/17 11:07:22;;;;;;;4.00;1.15;;;11.70;99.90;;;;;;5056060;28;20052;-79
2023/10/17 11:10:06;;;;;;;5.70;1.30;;;11.70;99.90;;;;;;5038418;28;20508;-78
2023/10/17 11:12:32;;;;;;;2.70;1.02;;;11.80;99.90;;;;;;5055348;28;20051;-79
2023/10/17 11:15:14;;;;;;;2.90;1.50;;;11.80;99.90;;;;;;5055458;28;20037;-79
2023/10/17 11:17:41;;;;;;;5.70;1.40;;;11.80;99.90;;;;;;5037092;28;20105;-79
2023/10/17 11:20:28;;;;;;;5.95;1.30;;;11.90;99.90;;;;;;5053956;28;20400;-79
2023/10/17 11:22:54;;;;;;;3.10;1.40;;;12.00;99.90;;;;;;5038092;28;20041;-80
2023/10/17 11:25:27;;;;;;;3.08;1.35;;;12.10;99.90;;;;;;5053998;28;20352;-79
2023/10/17 11:27:56;;;;;;;3.47;1.50;;;12.10;99.90;;;;;;5038878;28;20068;-79
2023/10/17 11:30:32;;;;;;;3.90;1.65;;;12.20;99.90;;;;;;5038497;28;20036;-79
2023/10/17 11:33:04;;;;;;;4.10;1.50;;;12.20;99.90;;;;;;5054902;28;20037;-79
2023/10/17 11:35:30;;;;;;;3.72;1.40;;;12.20;99.90;;;;;;5038445;28;20043;-79
2023/10/17 11:37:57;;;;;;;4.22;1.55;;;12.20;99.90;;;;;;5053845;28;20492;-80
2023/10/17 11:40:43;;;;;;;6.05;1.38;;;12.30;99.90;;;;;;5054462;28;20036;-78
2023/10/17 11:43:18;;;;;;;3.95;1.10;;;12.40;99.90;;;;;;5054385;28;20102;-79
2023/10/17 11:45:45;;;;;;;3.28;1.20;;;12.50;99.90;;;;;;5054383;28;20064;-79
2023/10/17 11:48:26;;;;;;;2.80;1.27;;;12.50;99.90;;;;;;5054406;28;20073;-79
2023/10/17 11:51:18;;;;;;;3.97;1.25;;;12.50;99.90;;;;;;5055148;28;20052;-80
2023/10/17 11:54:03;;;;;;;3.40;1.30;;;12.60;99.90;;;;;;5054554;28;20508;-78
2023/10/17 11:56:31;;;;;;;3.38;1.20;;;12.70;99.90;;;;;;5054147;28;20048;-79
2023/10/17 11:58:56;;;;;;;2.13;0.93;;;12.70;99.90;;;;;;5054688;28;20044;-78
2023/10/17 12:01:22;;;;;;;4.68;1.13;;;12.90;99.90;;;;;;5053782;28;20048;-79
2023/10/17 12:03:52;;;;;;;2.05;1.20;;;13.00;99.90;;;;;;5053820;28;20041;-79
2023/10/17 12:06:18;;;;;;;2.90;1.15;;;13.10;99.90;;;;;;5054369;28;20115;-79
2023/10/17 12:08:43;;;;;;;3.58;1.05;;;13.20;99.90;;;;;;5036962;28;20465;-79
2023/10/17 12:11:09;;;;;;;2.03;1.15;;;13.30;99.90;;;;;;5054240;28;20072;-79
2023/10/17 12:13:35;;;;;;;3.55;1.10;;;13.40;99.90;;;;;;5037528;28;20515;-80
2023/10/17 12:16:08;;;;;;;4.93;1.27;;;13.40;99.90;;;;;;5054134;28;20124;-79
2023/10/17 12:18:37;;;;;;;5.00;1.42;;;13.50;99.90;;;;;;5038541;28;20043;-78
2023/10/17 12:21:04;;;;;;;3.40;1.45;;;13.50;99.90;;;;;;5054326;28;20100;-78
2023/10/17 12:23:30;;;;;;;3.47;1.40;;;13.60;99.90;;;;;;5054664;28;20059;-80
2023/10/17 12:26:07;;;;;;;3.88;1.35;;;13.60;99.90;;;;;;5054099;28;20130;-79
2023/10/17 12:28:33;;;;;;;3.65;1.50;;;13.60;99.90;;;;;;5053811;28;20037;-79
2023/10/17 12:30:59;;;;;;;2.67;1.48;;;13.60;99.90;;;;;;5054618;28;20167;-78
2023/10/17 12:33:24;;;;;;;3.10;1.55;;;13.60;99.90;;;;;;5055280;28;20044;-79
2023/10/17 12:35:51;;;;;;;3.42;1.33;;;13.50;99.90;;;;;;5039433;28;20082;-79
2023/10/17 12:38:25;;;;;;;3.63;1.30;;;13.50;99.90;;;;;;5054058;28;20508;-80
2023/10/17 12:40:52;;;;;;;2.88;1.63;;;13.60;99.90;;;;;;5052170;28;20076;-79
2023/10/17 12:43:19;;;;;;;3.17;1.50;;;13.60;99.90;;;;;;5053730;28;20037;-79
2023/10/17 12:45:48;;;;;;;4.85;1.70;;;13.70;99.90;;;;;;5054778;28;20044;-80
2023/10/17 12:48:14;;;;;;;3.55;1.63;;;13.70;99.90;;;;;;5036685;28;20120;-78
2023/10/17 12:50:43;;;;;;;3.58;1.50;;;13.70;99.90;;;;;;5037246;28;20041;-80
2023/10/17 12:53:10;;;;;;;5.25;1.67;;;13.80;99.90;;;;;;5054282;28;20048;-80
2023/10/17 12:55:38;;;;;;;2.80;1.40;;;13.70;99.90;;;;;;5053776;28;20391;-79
2023/10/17 12:58:04;;;;;;;4.88;1.80;;;13.70;99.90;;;;;;5053643;28;20048;-80
2023/10/17 13:00:30;;;;;;;2.42;1.58;;;13.60;99.90;;;;;;5054006;28;20044;-79
2023/10/17 13:02:56;;;;;;;2.35;1.42;;;13.50;99.90;;;;;;5054062;28;20570;-79
2023/10/17 13:05:21;;;;;;;3.45;1.35;;;13.40;99.90;;;;;;5053994;28;20148;-79
2023/10/17 13:07:47;;;;;;;3.75;1.65;;;13.20;99.90;;;;;;5054337;28;20055;-79
2023/10/17 13:10:13;;;;;;;3.15;2.10;;;13.10;99.90;;;;;;5053202;28;20386;-79
2023/10/17 13:12:41;;;;;;;3.45;1.60;;;13.10;99.90;;;;;;5054356;28;20037;-80
2023/10/17 13:15:08;;;;;;;2.70;1.48;;;13.10;99.90;;;;;;5053220;28;20041;-79
2023/10/17 13:17:34;;;;;;;3.75;1.58;;;13.00;99.90;;;;;;5053446;28;20489;-80
2023/10/17 13:20:07;;;;;;;3.40;1.63;;;12.90;99.90;;;;;;5052921;28;20044;-79
2023/10/17 13:22:37;;;;;;;4.28;1.70;;;12.80;99.90;;;;;;5053764;28;20127;-78
2023/10/17 13:25:07;;;;;;;3.05;1.52;;;12.70;99.90;;;;;;5054242;28;20424;-79
2023/10/17 13:27:33;;;;;;;3.35;1.75;;;12.60;99.90;;;;;;5054432;28;20041;-80
2023/10/17 13:29:58;;;;;;;4.13;1.60;;;12.60;99.90;;;;;;5052977;28;20207;-80
2023/10/17 13:32:24;;;;;;;3.03;1.33;;;12.60;99.90;;;;;;5053359;28;20041;-80
2023/10/17 13:34:51;;;;;;;3.22;1.60;;;12.50;99.90;;;;;;5037218;28;20045;-80
2023/10/17 13:37:17;;;;;;;6.40;1.65;;;12.50;99.90;;;;;;5053930;28;20381;-81
2023/10/17 13:39:43;;;;;;;3.45;1.60;;;12.50;99.90;;;;;;5053645;28;20037;-80
2023/10/17 13:42:09;;;;;;;2.78;1.30;;;12.50;99.90;;;;;;5054192;28;20452;-80
2023/10/17 13:44:35;;;;;;;3.33;1.50;;;12.40;99.90;;;;;;5053749;28;22159;-80
2023/10/17 13:47:01;;;;;;;3.55;1.48;;;12.40;99.90;;;;;;5053803;28;20052;-80
2023/10/17 13:49:29;;;;;;;4.50;1.35;;;12.40;99.90;;;;;;5052469;28;20124;-79
2023/10/17 13:51:55;;;;;;;3.95;1.20;;;12.40;99.90;;;;;;5053532;28;20087;-81
2023/10/17 13:54:20;;;;;;;3.40;1.08;;;12.30;99.90;;;;;;5054048;28;20045;-79
2023/10/17 13:56:46;;;;;;;4.72;1.15;;;12.30;99.90;;;;;;5054428;28;20037;-81
2023/10/17 13:59:13;;;;;;;2.35;1.02;;;12.30;99.90;;;;;;5055318;28;20041;-78
2023/10/17 14:01:42;;;;;;;2.60;1.40;;;12.40;99.90;;;;;;5055959;28;20033;-81
2023/10/17 14:04:12;;;;;;;2.10;1.10;;;12.50;99.90;;;;;;5058697;28;20090;-79
2023/10/17 14:06:45;;;;;;;3.30;1.17;;;12.40;99.90;;;;;;5057192;28;20041;-78
2023/10/17 14:09:17;;;;;;;4.80;2.05;;;12.30;99.90;;;;;;5056052;28;20049;-79
2023/10/17 14:11:46;;;;;;;3.00;1.20;;;12.20;99.90;;;;;;5040573;28;20075;-79
2023/10/17 14:14:13;;;;;;;3.55;0.93;;;12.10;99.90;;;;;;5057376;28;20075;-81
2023/10/17 14:16:43;;;;;;;3.90;1.02;;;12.10;99.90;;;;;;5057510;28;20073;-80
2023/10/17 14:24:50;;;;;;;2.08;1.08;;;12.00;99.90;;;;;;5057512;28;20045;-81
2023/10/17 14:27:20;;;;;;;3.30;0.88;;;12.00;99.90;;;;;;5057047;28;20041;-79
2023/10/17 14:29:49;;;;;;;3.17;0.98;;;11.90;99.90;;;;;;5042245;28;20109;-80
2023/10/17 14:32:23;;;;;;;2.75;0.98;;;11.90;99.90;;;;;;5057141;28;20044;-80
2023/10/17 14:34:49;;;;;;;3.05;0.90;;;11.80;99.90;;;;;;5038998;28;20051;-80
2023/10/17 14:37:18;;;;;;;5.40;1.38;;;11.80;99.90;;;;;;5057038;28;20037;-80
2023/10/17 14:39:44;;;;;;;3.00;0.95;;;11.90;99.90;;;;;;5056324;28;20066;-80
2023/10/17 14:42:17;;;;;;;3.15;1.00;;;11.90;99.90;;;;;;5056870;28;20595;-79
2023/10/17 14:44:45;;;;;;;3.30;1.00;;;11.80;99.90;;;;;;5055883;28;20041;-79
2023/10/17 14:47:14;;;;;;;1.90;0.93;;;11.80;99.90;;;;;;5060611;28;20045;-80
2023/10/17 14:49:42;;;;;;;2.83;0.90;;;11.70;99.90;;;;;;5054439;28;20052;-79
2023/10/17 14:52:08;;;;;;;0.85;0.63;;;11.60;99.90;;;;;;5056705;28;20037;-80
2023/10/17 14:54:34;;;;;;;5.28;0.80;;;11.60;99.90;;;;;;5058137;28;20106;-81
2023/10/17 14:57:06;;;;;;;1.92;0.77;;;11.50;99.90;;;;;;5055528;28;20029;-79
2023/10/17 14:59:34;;;;;;;2.10;0.80;;;11.50;99.90;;;;;;5055874;28;20052;-80
2023/10/17 15:02:02;;;;;;;2.50;1.00;;;11.40;99.90;;;;;;5039268;28;20538;-81
2023/10/17 15:04:28;;;;;;;3.88;1.00;;;11.40;99.90;;;;;;5056334;28;20041;-78
2023/10/17 15:06:53;;;;;;;1.92;0.90;;;11.30;99.90;;;;;;5041292;28;20044;-80
2023/10/17 15:09:21;;;;;;;4.47;1.10;;;11.30;99.90;;;;;;5055655;28;20040;-80
2023/10/17 15:11:50;;;;;;;3.35;0.90;;;11.30;99.90;;;;;;5056181;28;20137;-80
2023/10/17 15:14:15;;;;;;;2.28;0.80;;;11.30;99.90;;;;;;5056987;28;20037;-80
2023/10/17 15:16:42;;;;;;;1.65;0.80;;;11.30;99.90;;;;;;5058333;28;20048;-80
2023/10/17 15:19:08;;;;;;;2.97;1.05;;;11.20;99.90;;;;;;5060413;28;20045;-80
2023/10/17 15:21:34;;;;;;;1.77;0.90;;;11.20;99.90;;;;;;5056134;28;20072;-80
2023/10/17 15:24:00;;;;;;;1.05;0.65;;;11.20;99.90;;;;;;5056240;28;20041;-79
2023/10/17 15:26:26;;;;;;;5.97;1.05;;;11.10;99.90;;;;;;5056232;28;20037;-80
2023/10/17 15:28:51;;;;;;;3.03;0.85;;;11.00;99.90;;;;;;5041033;28;20043;-79
2023/10/17 15:31:17;;;;;;;2.05;0.75;;;11.00;99.90;;;;;;5056155;28;20452;-80
2023/10/17 15:33:44;;;;;;;3.28;0.80;;;11.00;99.90;;;;;;5060955;28;20029;-79